Terminal Aerodrome Forecast
Issued by NWS Flagstaff, AZ

Home | Current Version | Previous Version | Text Only | Print | Product List | Glossary On
Versions: 1 2 3 4 5 6 7 8 9 10 11 12 13 14 15 16 17 18 19 20
000
FTUS45 KFGZ 012330
TAFINW
TAF
KINW 012330Z 0200/0224 22008KT P6SM FEW080 SCT250
      TEMPO 0200/0201 VRB15G25KT P6SM -TSRA BKN050CB
     FM020300 VRB06KT P6SM SCT250
     FM022000 20010KT P6SM SCT060 SCT250=

USA.gov is the U.S. government's official web portal to all federal, state and local government web resources and services.